Time;durP1;ratioP1;P1;durP2;ratioP2;P2;SDS_P1;SDS_P2;PMS_P1;PMS_P2;Temp;Humidity;BMP_temperature;BMP_pressure;BME280_temperature;BME280_humidity;BME280_pressure;Samples;Min_cycle;Max_cycle;Signal;HPM_P1;HPM_P2
2022/06/28 00:01:23;;;;;;;;;2.75;2.75;;;;;17.67;57.07;101232.44;5094656;27;45475;-69
2022/06/28 00:03:49;;;;;;;;;4.75;3.00;;;;;17.64;57.71;101229.97;5075976;27;45376;-69
2022/06/28 00:06:14;;;;;;;;;6.00;2.50;;;;;17.60;57.82;101228.44;5075550;27;45365;-68
2022/06/28 00:08:39;;;;;;;;;2.00;2.00;;;;;17.57;57.64;101228.63;5075151;27;45400;-68
2022/06/28 00:11:05;;;;;;;;;4.25;3.00;;;;;17.50;57.87;101225.50;5071855;28;45469;-70
2022/06/28 00:13:31;;;;;;;;;2.25;2.25;;;;;17.46;57.62;101221.28;5074178;27;45279;-68
2022/06/28 00:16:06;;;;;;;;;4.50;3.00;;;;;17.48;58.19;101231.84;5095412;27;45413;-69
2022/06/28 00:18:36;;;;;;;;;2.00;2.00;;;;;17.45;57.69;101222.22;5088027;27;45381;-70
2022/06/28 00:21:02;;;;;;;;;2.50;2.50;;;;;17.45;57.69;101229.38;5075110;27;45382;-69
2022/06/28 00:23:30;;;;;;;;;5.25;3.00;;;;;17.41;58.22;101223.34;5089822;27;45547;-68
2022/06/28 00:25:56;;;;;;;;;2.00;1.50;;;;;17.41;57.84;101223.34;5078763;27;46032;-68
2022/06/28 00:28:22;;;;;;;;;3.00;3.00;;;;;17.39;58.09;101217.28;5103079;27;46109;-69
2022/06/28 00:30:47;;;;;;;;;4.00;2.50;;;;;17.39;57.99;101227.91;5070540;27;45446;-68
2022/06/28 00:33:13;;;;;;;;;5.00;3.25;;;;;17.38;58.24;101227.06;5069537;27;45532;-69
2022/06/28 00:35:38;;;;;;;;;1.50;1.50;;;;;17.35;58.08;101235.22;5069159;27;46442;-69
2022/06/28 00:38:03;;;;;;;;;3.00;1.50;;;;;17.33;58.24;101234.44;5069726;28;45488;-69
2022/06/28 00:40:31;;;;;;;;;5.00;3.00;;;;;17.22;58.31;101221.78;5069835;27;45868;-68
2022/06/28 00:42:57;;;;;;;;;2.25;2.25;;;;;17.26;58.33;101229.56;5069357;27;45713;-68
2022/06/28 00:45:22;;;;;;;;;4.25;3.00;;;;;17.24;58.58;101232.34;5069790;28;45899;-69
2022/06/28 00:47:48;;;;;;;;;3.00;2.00;;;;;17.22;58.68;101228.91;5068516;27;45505;-69
2022/06/28 00:50:14;;;;;;;;;1.50;1.50;;;;;17.18;58.52;101217.59;5069063;28;45509;-70
2022/06/28 00:53:09;;;;;;;;;2.00;2.00;;;;;17.15;58.84;101216.91;5068989;27;45535;-70
2022/06/28 00:55:34;;;;;;;;;1.75;1.75;;;;;17.14;58.83;101225.84;5070737;28;45449;-70
2022/06/28 00:58:00;;;;;;;;;2.00;2.00;;;;;17.13;58.96;101226.78;5068837;27;45481;-69
2022/06/28 01:00:27;;;;;;;;;3.00;3.00;;;;;17.10;59.42;101219.81;5050958;28;45588;-70
2022/06/28 01:02:53;;;;;;;;;4.50;2.00;;;;;17.04;58.95;101215.75;5069562;28;45581;-69
2022/06/28 01:05:19;;;;;;;;;3.25;2.75;;;;;17.05;59.26;101214.78;5073793;27;46170;-68
2022/06/28 01:07:44;;;;;;;;;4.00;2.75;;;;;17.05;59.19;101221.91;5074149;27;45321;-69
2022/06/28 01:10:10;;;;;;;;;4.00;2.00;;;;;17.03;59.12;101226.44;5073544;27;45496;-69
2022/06/28 01:12:35;;;;;;;;;2.25;2.00;;;;;17.03;59.27;101224.66;5074234;28;45291;-69
2022/06/28 01:15:01;;;;;;;;;2.00;2.00;;;;;16.98;59.07;101213.44;5073827;27;46311;-70
2022/06/28 01:17:26;;;;;;;;;2.00;2.00;;;;;16.98;59.17;101218.75;5074388;27;45477;-70
2022/06/28 01:19:52;;;;;;;;;3.25;2.00;;;;;16.97;59.05;101217.03;5073032;28;45276;-70
2022/06/28 01:22:20;;;;;;;;;2.50;2.50;;;;;16.95;59.38;101218.84;5075363;27;45261;-68
2022/06/28 01:24:45;;;;;;;;;1.75;1.75;;;;;16.92;59.38;101211.94;5077078;28;45330;-69
2022/06/28 01:27:11;;;;;;;;;1.75;1.75;;;;;16.97;59.23;101221.44;5077438;27;45423;-70
2022/06/28 01:29:37;;;;;;;;;2.50;2.50;;;;;16.94;59.26;101219.81;5075627;28;45467;-69
2022/06/28 01:32:03;;;;;;;;;2.00;2.00;;;;;16.97;59.32;101219.69;5078211;27;45318;-70
2022/06/28 01:34:28;;;;;;;;;3.00;2.00;;;;;16.96;59.15;101217.06;5077705;28;45384;-69
2022/06/28 01:36:53;;;;;;;;;4.00;2.75;;;;;16.94;59.29;101211.84;5077140;27;45354;-68
2022/06/28 01:39:19;;;;;;;;;4.00;2.50;;;;;16.91;59.55;101212.00;5077361;27;45274;-71
2022/06/28 01:41:44;;;;;;;;;2.25;2.25;;;;;16.89;59.67;101212.13;5077365;28;45603;-69
2022/06/28 01:44:10;;;;;;;;;2.00;2.00;;;;;16.85;59.41;101201.72;5076875;28;46418;-69
2022/06/28 01:46:38;;;;;;;;;2.00;2.00;;;;;16.80;59.78;101202.00;5094010;27;45388;-68
2022/06/28 01:49:04;;;;;;;;;2.25;2.25;;;;;16.84;59.85;101210.66;5095285;27;45332;-70
2022/06/28 01:51:30;;;;;;;;;2.00;2.00;;;;;16.83;59.56;101209.81;5078697;27;45581;-69
2022/06/28 01:53:55;;;;;;;;;1.00;1.00;;;;;16.82;59.44;101212.53;5078428;27;46026;-69
2022/06/28 01:56:21;;;;;;;;;2.00;2.00;;;;;16.82;59.65;101218.72;5077351;28;45476;-70
2022/06/28 01:58:47;;;;;;;;;1.00;1.00;;;;;16.78;59.50;101223.34;5078347;28;45503;-69
2022/06/28 02:01:12;;;;;;;;;2.00;2.00;;;;;16.75;59.74;101214.69;5077808;28;45318;-69
2022/06/28 02:03:38;;;;;;;;;2.00;2.00;;;;;16.74;59.85;101215.63;5077560;27;45560;-70
2022/06/28 02:06:03;;;;;;;;;2.00;2.00;;;;;16.72;59.72;101213.06;5077124;28;45381;-69
2022/06/28 02:08:29;;;;;;;;;3.00;3.00;;;;;16.69;60.02;101209.72;5078118;27;45483;-69
2022/06/28 02:11:02;;;;;;;;;1.25;1.00;;;;;16.68;60.27;101208.00;5077091;27;45366;-70
2022/06/28 02:13:27;;;;;;;;;2.00;2.00;;;;;16.63;60.16;101201.16;5077294;27;48562;-69
2022/06/28 02:15:53;;;;;;;;;1.50;1.00;;;;;16.61;60.42;101205.72;5076384;28;45331;-69
2022/06/28 02:18:18;;;;;;;;;1.75;1.75;;;;;16.56;60.57;101201.56;5078135;27;45407;-70
2022/06/28 02:20:43;;;;;;;;;1.25;1.25;;;;;16.54;60.68;101203.47;5078115;27;45295;-70
2022/06/28 02:23:09;;;;;;;;;1.50;1.50;;;;;16.44;60.70;101185.38;5077175;28;46732;-71
2022/06/28 02:25:34;;;;;;;;;2.00;2.00;;;;;16.50;60.72;101203.63;5076711;28;45346;-69
2022/06/28 02:27:59;;;;;;;;;3.75;2.25;;;;;16.42;61.02;101195.25;5077077;28;45256;-70
2022/06/28 02:30:24;;;;;;;;;3.50;2.50;;;;;16.43;61.49;101207.56;5076858;27;45364;-69
2022/06/28 02:32:50;;;;;;;;;3.00;1.50;;;;;16.39;61.16;101190.09;5076745;27;45454;-68
2022/06/28 02:40:43;;;;;;;;;3.00;2.00;;;;;16.42;61.01;101197.88;5076891;28;45432;-69
2022/06/28 02:43:08;;;;;;;;;4.00;2.25;;;;;16.35;61.18;101186.75;5076656;27;46199;-68
2022/06/28 02:45:35;;;;;;;;;3.00;3.00;;;;;16.40;61.06;101193.59;5076462;27;45384;-70
2022/06/28 02:48:02;;;;;;;;;1.25;1.00;;;;;16.40;60.90;101199.78;5076505;27;45462;-69
2022/06/28 02:50:27;;;;;;;;;3.00;3.00;;;;;16.39;61.03;101197.19;5076595;27;45214;-69
2022/06/28 02:52:53;;;;;;;;;1.50;1.50;;;;;16.38;61.03;101201.66;5076698;28;46233;-69
2022/06/28 02:55:18;;;;;;;;;5.00;3.00;;;;;16.40;60.79;101202.44;5076267;27;45179;-69
2022/06/28 02:57:45;;;;;;;;;3.25;2.25;;;;;16.39;60.88;101200.72;5091678;27;45395;-69
2022/06/28 03:00:14;;;;;;;;;3.50;3.00;;;;;16.43;60.68;101201.38;5076727;27;45329;-68
2022/06/28 03:02:41;;;;;;;;;3.00;3.00;;;;;16.39;60.65;101195.41;5076087;28;46201;-69
2022/06/28 03:05:08;;;;;;;;;2.00;2.00;;;;;16.41;60.89;101208.59;5074943;28;45371;-68
2022/06/28 03:07:34;;;;;;;;;2.00;2.00;;;;;16.39;60.73;101205.16;5077211;27;45431;-67
2022/06/28 03:09:59;;;;;;;;;1.75;1.75;;;;;16.35;60.43;101201.81;5076106;28;45512;-71
2022/06/28 03:12:25;;;;;;;;;1.25;1.25;;;;;16.34;60.45;101206.25;5076215;27;46412;-68
2022/06/28 03:14:50;;;;;;;;;3.25;2.25;;;;;16.33;60.58;101199.25;5075536;28;45445;-70
2022/06/28 03:17:16;;;;;;;;;0.50;0.50;;;;;16.32;60.43;101196.69;5074750;28;45571;-68
2022/06/28 03:19:41;;;;;;;;;2.75;1.00;;;;;16.31;60.19;101210.91;5075928;27;45325;-70
2022/06/28 03:22:06;;;;;;;;;1.75;1.75;;;;;16.33;60.27;101209.00;5075724;27;46256;-68
2022/06/28 03:24:32;;;;;;;;;2.00;2.00;;;;;16.29;60.29;101210.13;5075671;27;45392;-69
2022/06/28 03:26:57;;;;;;;;;1.25;1.25;;;;;16.28;60.72;101200.44;5076088;27;45490;-69
2022/06/28 03:29:23;;;;;;;;;3.00;2.00;;;;;16.21;60.82;101200.78;5076087;27;45285;-70
2022/06/28 03:31:49;;;;;;;;;4.00;2.00;;;;;16.18;60.40;101194.78;5075450;27;46409;-68
2022/06/28 03:34:14;;;;;;;;;4.00;1.50;;;;;16.17;60.78;101201.00;5075906;28;45360;-69
2022/06/28 03:36:40;;;;;;;;;3.50;2.00;;;;;16.12;60.84;101205.72;5075784;27;45367;-67
2022/06/28 03:39:05;;;;;;;;;1.00;1.00;;;;;16.02;60.86;101178.84;5075927;28;45280;-68
2022/06/28 03:41:31;;;;;;;;;1.25;1.25;;;;;16.06;60.73;101191.00;5075746;27;46868;-69
2022/06/28 03:43:56;;;;;;;;;2.00;2.00;;;;;16.06;60.93;101191.84;5075689;27;45279;-68
2022/06/28 03:46:21;;;;;;;;;2.00;2.00;;;;;16.11;60.88;101199.56;5075021;28;45516;-68
2022/06/28 03:48:47;;;;;;;;;1.00;1.00;;;;;16.14;60.74;101195.88;5074275;28;45403;-68
2022/06/28 03:51:13;;;;;;;;;1.50;1.50;;;;;16.15;60.64;101195.81;5073784;28;46046;-69
2022/06/28 03:53:39;;;;;;;;;3.00;3.00;;;;;16.16;60.38;101205.47;5075367;28;45371;-68
2022/06/28 03:56:05;;;;;;;;;3.25;2.00;;;;;16.14;60.48;101199.41;5074131;28;45528;-69
2022/06/28 03:58:32;;;;;;;;;4.00;2.00;;;;;16.15;60.92;101205.56;5075440;27;45318;-69
2022/06/28 04:00:58;;;;;;;;;2.00;2.00;;;;;16.10;60.70;101208.47;5075122;27;45530;-69
2022/06/28 04:03:23;;;;;;;;;1.75;1.75;;;;;16.06;60.65;101201.59;5074664;27;45443;-68
2022/06/28 04:05:49;;;;;;;;;1.25;1.25;;;;;16.10;60.78;101204.94;5090627;27;45325;-68
2022/06/28 04:08:14;;;;;;;;;2.00;2.00;;;;;16.05;60.64;101199.91;5075212;27;45572;-69
2022/06/28 04:10:40;;;;;;;;;3.00;3.00;;;;;15.92;60.87;101186.41;5074209;27;51418;-68
2022/06/28 04:13:05;;;;;;;;;2.00;2.00;;;;;16.06;60.66;101207.75;5075334;27;45256;-69
2022/06/28 04:15:31;;;;;;;;;4.75;2.75;;;;;16.08;60.27;101212.13;5074561;27;45390;-68
2022/06/28 04:17:56;;;;;;;;;1.75;1.75;;;;;16.07;60.50;101208.63;5074849;27;45361;-68
2022/06/28 04:20:22;;;;;;;;;4.50;4.50;;;;;16.04;60.50;101204.34;5090382;27;46291;-67
2022/06/28 04:22:47;;;;;;;;;3.00;3.00;;;;;16.09;60.40;101209.41;5074519;27;45242;-67
2022/06/28 04:25:13;;;;;;;;;3.75;3.25;;;;;16.10;60.92;101203.16;5074596;27;45416;-67
2022/06/28 04:27:38;;;;;;;;;3.00;3.00;;;;;16.18;60.17;101213.34;5075654;28;45225;-67
2022/06/28 04:30:04;;;;;;;;;6.00;3.50;;;;;16.23;60.25;101221.06;5074678;27;45609;-68
2022/06/28 04:32:30;;;;;;;;;2.00;2.00;;;;;16.24;60.02;101210.34;5074095;27;45499;-69
2022/06/28 04:34:56;;;;;;;;;2.00;2.00;;;;;16.30;60.01;101230.41;5074991;27;45385;-68
2022/06/28 04:37:22;;;;;;;;;3.75;2.00;;;;;16.31;59.76;101226.81;5074769;27;45548;-66
2022/06/28 04:39:47;;;;;;;;;2.00;2.00;;;;;16.32;59.46;101220.56;5074198;28;45791;-67
2022/06/28 04:42:12;;;;;;;;;2.00;2.00;;;;;16.33;59.62;101219.63;5074330;27;45384;-69
2022/06/28 04:44:38;;;;;;;;;2.25;2.25;;;;;16.33;59.64;101220.47;5075419;27;45539;-68
2022/06/28 04:47:04;;;;;;;;;3.25;2.00;;;;;16.40;59.39;101228.09;5074259;27;45549;-68
2022/06/28 04:49:29;;;;;;;;;1.75;1.75;;;;;16.42;59.37;101218.25;5074531;27;45389;-69
2022/06/28 04:51:55;;;;;;;;;2.75;2.00;;;;;16.50;59.20;101221.38;5074592;27;45320;-70
2022/06/28 04:54:21;;;;;;;;;5.75;3.50;;;;;16.59;59.29;101225.31;5074648;27;45312;-69
2022/06/28 04:56:46;;;;;;;;;3.00;3.00;;;;;16.66;59.13;101232.00;5075429;27;45498;-69
2022/06/28 04:59:11;;;;;;;;;2.00;2.00;;;;;16.71;58.62;101224.63;5079295;28;46450;-71
2022/06/28 05:01:37;;;;;;;;;2.75;2.50;;;;;16.88;58.44;101225.47;5078107;27;45219;-71
2022/06/28 05:04:02;;;;;;;;;2.00;2.00;;;;;17.25;57.54;101227.84;5078361;27;45554;-70
2022/06/28 05:06:28;;;;;;;;;1.00;1.00;;;;;17.76;56.51;101230.19;5078799;27;45207;-69
2022/06/28 05:08:55;;;;;;;;;1.00;1.00;;;;;18.34;55.40;101224.94;5077039;28;46491;-70
2022/06/28 05:11:21;;;;;;;;;5.00;2.00;;;;;18.89;55.08;101233.00;5076565;27;45388;-69
2022/06/28 05:13:46;;;;;;;;;2.00;0.25;;;;;19.33;53.08;101231.06;5078056;27;45377;-70
2022/06/28 05:16:12;;;;;;;;;1.50;1.50;;;;;19.86;52.30;101239.03;5078018;28;45310;-71
2022/06/28 05:18:37;;;;;;;;;2.75;1.50;;;;;20.27;51.29;101238.00;5078177;27;45541;-69
2022/06/28 05:21:03;;;;;;;;;1.00;1.00;;;;;20.74;49.97;101242.69;5092932;27;45497;-70
2022/06/28 05:23:28;;;;;;;;;0.75;0.00;;;;;21.20;49.25;101242.97;5078300;28;45268;-70
2022/06/28 05:25:54;;;;;;;;;2.75;2.50;;;;;21.59;48.14;101238.25;5076257;28;45575;-69
2022/06/28 05:28:20;;;;;;;;;2.00;2.00;;;;;21.77;47.89;101235.16;5078373;27;46177;-70
2022/06/28 05:30:45;;;;;;;;;5.25;5.25;;;;;21.82;47.19;101236.53;5076038;28;45350;-69
2022/06/28 05:33:11;;;;;;;;;1.50;1.50;;;;;21.90;46.88;101235.91;5076688;28;45675;-69
2022/06/28 05:35:36;;;;;;;;;13.00;11.75;;;;;22.00;46.92;101242.25;5093422;27;45259;-69
2022/06/28 05:38:02;;;;;;;;;2.25;2.25;;;;;22.10;46.44;101236.16;5077381;28;46084;-70
2022/06/28 05:40:29;;;;;;;;;1.25;1.25;;;;;22.16;45.98;101228.50;5077231;27;45521;-69
2022/06/28 05:42:54;;;;;;;;;1.50;1.50;;;;;22.27;45.52;101234.84;5076986;27;45416;-69
2022/06/28 05:45:20;;;;;;;;;2.00;2.00;;;;;22.31;45.14;101231.81;5062013;28;45398;-69
2022/06/28 05:47:45;;;;;;;;;1.00;1.00;;;;;22.35;44.62;101226.19;5077141;27;45535;-71
2022/06/28 05:50:11;;;;;;;;;6.25;3.25;;;;;22.31;43.93;101230.94;5093004;27;45447;-69
2022/06/28 05:52:37;;;;;;;;;3.75;2.50;;;;;22.30;44.56;101223.88;5077814;27;45380;-70
2022/06/28 05:55:02;;;;;;;;;2.50;2.50;;;;;22.24;44.46;101229.72;5076780;28;45425;-70
2022/06/28 05:57:28;;;;;;;;;1.00;1.00;;;;;22.15;44.35;101217.91;5077084;28;45378;-70
2022/06/28 05:59:54;;;;;;;;;2.50;2.50;;;;;22.07;44.56;101223.00;5077761;27;45451;-70
2022/06/28 06:02:19;;;;;;;;;21.50;21.00;;;;;21.86;44.80;101221.91;5092375;27;45412;-70
2022/06/28 06:04:44;;;;;;;;;22.00;22.00;;;;;21.71;44.96;101215.91;5076919;27;45325;-68
2022/06/28 06:07:10;;;;;;;;;1.25;1.25;;;;;21.52;44.69;101219.13;5076849;27;46417;-69
2022/06/28 06:09:36;;;;;;;;;0.25;0.25;;;;;21.33;44.95;101225.03;5077130;27;45309;-69
2022/06/28 06:12:04;;;;;;;;;1.00;1.00;;;;;21.07;45.44;101230.50;5076672;27;45398;-69
2022/06/28 06:14:29;;;;;;;;;1.00;1.00;;;;;20.88;45.75;101231.03;5077125;27;45504;-66
2022/06/28 06:16:54;;;;;;;;;1.50;1.00;;;;;20.68;46.19;101229.78;5077055;27;46511;-70
2022/06/28 06:19:20;;;;;;;;;1.25;1.25;;;;;20.60;46.92;101226.81;5092159;27;45371;-68
2022/06/28 06:21:45;;;;;;;;;0.50;0.25;;;;;20.39;46.59;101219.38;5077012;27;45729;-72
2022/06/28 06:24:11;;;;;;;;;0.00;0.00;;;;;20.10;46.47;101198.25;5097984;27;45412;-73
2022/06/28 06:26:37;;;;;;;;;1.00;1.00;;;;;20.04;47.47;101214.72;5089905;27;46118;-72
2022/06/28 06:29:02;;;;;;;;;1.00;1.00;;;;;19.90;47.26;101219.22;5076930;27;45449;-72
2022/06/28 06:31:28;;;;;;;;;2.00;2.00;;;;;19.71;46.96;101225.78;5097360;27;45324;-72
2022/06/28 06:33:54;;;;;;;;;3.25;3.25;;;;;19.51;47.45;101212.97;5091707;27;45407;-68
2022/06/28 06:36:19;;;;;;;;;2.50;1.00;;;;;19.37;47.57;101217.44;5109022;27;46151;-70
2022/06/28 06:38:45;;;;;;;;;1.00;1.00;;;;;19.24;48.38;101216.53;5076964;28;45214;-72
2022/06/28 06:41:10;;;;;;;;;3.00;1.00;;;;;19.16;47.98;101213.53;5077427;27;45264;-70
2022/06/28 06:43:35;;;;;;;;;4.00;3.00;;;;;19.04;48.20;101213.38;5076528;27;45542;-73
2022/06/28 06:46:01;;;;;;;;;3.75;2.00;;;;;18.92;48.79;101203.47;5075244;28;46097;-75
2022/06/28 06:48:26;;;;;;;;;3.00;1.00;;;;;18.80;48.86;101203.34;5077690;28;45237;-72
2022/06/28 06:50:52;;;;;;;;;2.00;2.00;;;;;18.77;49.03;101208.84;5077197;27;45352;-67
2022/06/28 06:53:19;;;;;;;;;3.00;1.00;;;;;18.75;49.47;101212.59;5075307;28;45542;-70
2022/06/28 06:55:46;;;;;;;;;3.25;2.25;;;;;18.74;49.49;101213.56;5077168;27;45553;-75
2022/06/28 06:58:12;;;;;;;;;4.25;3.00;;;;;18.77;50.04;101200.88;5086768;27;45336;-81
2022/06/28 07:00:38;;;;;;;;;3.00;3.00;;;;;18.78;49.44;101199.91;5093398;27;45413;-74
2022/06/28 07:03:03;;;;;;;;;3.50;3.00;;;;;18.90;50.05;101205.38;5090998;27;45623;-71
2022/06/28 07:05:30;;;;;;;;;4.00;3.00;;;;;18.86;49.67;101178.09;5082700;27;45346;-71
2022/06/28 07:07:55;;;;;;;;;3.00;2.75;;;;;19.00;49.46;101187.88;5076319;27;45276;-68
2022/06/28 07:10:21;;;;;;;;;2.25;1.50;;;;;19.09;49.45;101184.63;5075877;27;45258;-70
2022/06/28 07:12:46;;;;;;;;;3.00;3.00;;;;;19.08;49.84;101177.53;5076423;28;45431;-66
2022/06/28 07:15:12;;;;;;;;;2.25;2.00;;;;;19.19;49.75;101181.34;5076402;27;45255;-69
2022/06/28 07:17:37;;;;;;;;;4.25;4.25;;;;;19.29;49.84;101193.09;5074922;27;45495;-69
2022/06/28 07:20:03;;;;;;;;;5.25;3.00;;;;;19.37;49.35;101190.75;5074481;27;45822;-69
2022/06/28 07:22:29;;;;;;;;;4.00;2.00;;;;;19.40;49.82;101182.53;5074604;27;45311;-69
2022/06/28 07:24:56;;;;;;;;;2.00;2.00;;;;;19.50;49.00;101184.56;5074414;27;46312;-69
2022/06/28 07:27:22;;;;;;;;;2.50;2.50;;;;;19.54;49.46;101176.25;5075404;27;45487;-69
2022/06/28 07:29:48;;;;;;;;;6.50;3.00;;;;;19.58;49.11;101173.34;5075406;27;45504;-69
2022/06/28 07:32:13;;;;;;;;;4.50;4.25;;;;;19.59;49.37;101165.25;5076651;27;45436;-69
2022/06/28 07:34:39;;;;;;;;;21.25;19.75;;;;;19.66;49.61;101166.53;5075363;27;46401;-70
2022/06/28 07:37:04;;;;;;;;;5.75;2.00;;;;;19.71;49.41;101168.91;5074623;28;45584;-69
2022/06/28 07:39:30;;;;;;;;;3.25;2.50;;;;;19.81;48.97;101171.78;5076089;27;45249;-70
2022/06/28 07:41:55;;;;;;;;;4.25;2.50;;;;;19.89;48.97;101168.56;5075658;28;45568;-69
2022/06/28 07:44:21;;;;;;;;;2.00;2.00;;;;;19.89;48.59;101149.88;5075846;27;45766;-69
2022/06/28 07:46:46;;;;;;;;;2.75;2.75;;;;;20.08;48.91;101166.34;5075752;27;45234;-69
2022/06/28 07:49:11;;;;;;;;;2.75;1.50;;;;;20.14;48.44;101155.22;5075721;27;45991;-68
2022/06/28 07:54:21;;;;;;;;;3.00;3.00;;;;;20.25;48.31;101162.47;5075281;28;45212;-68
2022/06/28 07:56:47;;;;;;;;;4.25;2.50;;;;;20.35;48.30;101143.94;5075786;27;45259;-69
2022/06/28 07:59:12;;;;;;;;;2.00;2.00;;;;;20.52;48.52;101152.53;5075609;27;45764;-69
2022/06/28 08:01:37;;;;;;;;;4.25;2.50;;;;;20.62;48.44;101145.53;5075591;27;45584;-68
2022/06/28 08:04:03;;;;;;;;;2.00;2.00;;;;;20.73;48.22;101148.31;5075581;27;46360;-72
2022/06/28 08:06:28;;;;;;;;;5.75;4.75;;;;;20.81;48.40;101146.91;5075400;27;45260;-70
2022/06/28 08:08:53;;;;;;;;;2.00;2.00;;;;;20.87;47.65;101138.44;5075341;27;45490;-69
2022/06/28 08:11:19;;;;;;;;;4.50;2.25;;;;;20.95;48.01;101140.50;5075873;27;45511;-69
2022/06/28 08:13:48;;;;;;;;;2.25;2.25;;;;;21.02;47.75;101133.72;5075463;27;46044;-69
2022/06/28 08:16:14;;;;;;;;;1.00;1.00;;;;;21.16;47.49;101136.19;5075401;27;45398;-69
2022/06/28 08:18:39;;;;;;;;;4.00;1.50;;;;;21.21;47.56;101125.16;5075474;28;45306;-68
2022/06/28 08:21:05;;;;;;;;;5.25;3.50;;;;;21.33;47.26;101131.41;5075505;27;45322;-68
2022/06/28 08:23:31;;;;;;;;;2.00;2.00;;;;;21.40;47.20;101129.94;5075337;27;46023;-69
2022/06/28 08:25:57;;;;;;;;;3.00;3.00;;;;;21.45;46.81;101119.72;5075274;27;45284;-69
2022/06/28 08:28:22;;;;;;;;;2.50;2.50;;;;;21.56;46.92;101137.63;5075207;27;45855;-69
2022/06/28 08:30:48;;;;;;;;;3.00;3.00;;;;;21.64;46.51;101123.66;5075854;27;45274;-69
2022/06/28 08:33:13;;;;;;;;;2.75;2.00;;;;;21.76;46.53;101123.69;5074003;27;45864;-69
2022/06/28 08:35:39;;;;;;;;;2.25;2.25;;;;;21.84;45.99;101118.56;5075230;27;45309;-70
2022/06/28 08:38:05;;;;;;;;;1.25;1.25;;;;;21.88;45.54;101114.66;5074160;28;45317;-70
2022/06/28 08:40:31;;;;;;;;;5.75;4.25;;;;;21.93;45.31;101109.78;5075556;27;45270;-69
2022/06/28 08:42:58;;;;;;;;;3.00;3.00;;;;;22.01;45.39;101114.53;5072986;28;46841;-69
2022/06/28 08:45:24;;;;;;;;;3.00;3.00;;;;;22.13;45.31;101110.00;5074777;27;45472;-71
2022/06/28 08:47:55;;;;;;;;;2.00;2.00;;;;;22.22;44.91;101103.91;5075388;27;45409;-70
2022/06/28 08:50:32;;;;;;;;;3.00;2.50;;;;;22.29;44.62;101107.81;5075304;27;45322;-70
2022/06/28 08:53:00;;;;;;;;;2.00;2.00;;;;;22.34;44.30;101096.69;5073676;28;48006;-70
2022/06/28 08:55:26;;;;;;;;;5.00;3.75;;;;;22.40;44.77;101098.88;5074573;27;45264;-70
2022/06/28 08:57:53;;;;;;;;;2.75;2.75;;;;;22.51;43.79;101094.47;5075295;27;45299;-70
2022/06/28 09:00:18;;;;;;;;;2.25;2.25;;;;;22.59;43.13;101083.97;5076001;27;45611;-71
2022/06/28 09:02:46;;;;;;;;;1.75;1.75;;;;;22.68;43.37;101082.34;5074666;27;45345;-69
2022/06/28 09:05:13;;;;;;;;;2.00;2.00;;;;;22.76;42.77;101091.44;5074660;27;45256;-70
2022/06/28 09:07:38;;;;;;;;;3.00;3.00;;;;;22.86;42.83;101079.97;5073040;28;45471;-70
2022/06/28 09:10:04;;;;;;;;;4.25;4.25;;;;;22.94;42.81;101068.56;5074519;27;45463;-69
2022/06/28 09:12:32;;;;;;;;;5.00;2.00;;;;;23.00;42.29;101068.91;5074718;28;46271;-69
2022/06/28 09:14:57;;;;;;;;;1.25;1.25;;;;;23.10;42.22;101070.81;5074595;27;45273;-70
2022/06/28 09:17:29;;;;;;;;;2.50;2.50;;;;;23.19;41.49;101065.47;5074882;27;45291;-69
2022/06/28 09:19:58;;;;;;;;;2.50;2.00;;;;;23.30;41.65;101061.91;5074949;27;45327;-70
2022/06/28 09:22:50;;;;;;;;;0.75;0.75;;;;;23.44;40.38;101060.72;5074263;27;47053;-69
2022/06/28 09:25:31;;;;;;;;;1.25;1.25;;;;;23.54;39.90;101060.72;5073085;27;45373;-69
2022/06/28 09:28:02;;;;;;;;;2.00;2.00;;;;;23.64;38.89;101060.78;5074407;27;45294;-69
2022/06/28 09:30:30;;;;;;;;;1.75;1.75;;;;;23.74;39.43;101056.28;5074257;27;45210;-69
2022/06/28 09:32:55;;;;;;;;;1.00;1.00;;;;;23.84;39.23;101048.25;5073933;27;46661;-69
2022/06/28 09:35:24;;;;;;;;;6.00;3.00;;;;;23.87;38.59;101050.69;5074369;27;45314;-71
2022/06/28 09:37:52;;;;;;;;;2.00;2.00;;;;;23.89;38.51;101047.84;5074663;27;45829;-69
2022/06/28 09:40:21;;;;;;;;;3.50;3.50;;;;;23.96;39.01;101046.31;5074330;27;45607;-70
2022/06/28 09:43:06;;;;;;;;;3.00;3.00;;;;;24.05;38.23;101034.75;5074256;28;45305;-70
2022/06/28 09:45:33;;;;;;;;;2.00;2.00;;;;;24.14;37.47;101038.47;5077766;27;45416;-69
2022/06/28 09:47:59;;;;;;;;;2.00;1.00;;;;;24.25;37.10;101032.09;5077818;27;45436;-70
2022/06/28 09:50:24;;;;;;;;;1.75;1.75;;;;;24.27;37.12;101032.78;5076604;28;45379;-70
2022/06/28 09:52:51;;;;;;;;;1.75;1.75;;;;;24.41;36.71;101030.72;5077709;27;46127;-68
2022/06/28 09:55:18;;;;;;;;;1.50;1.50;;;;;24.45;36.31;101021.38;5077583;28;45349;-69
2022/06/28 09:57:45;;;;;;;;;5.75;5.75;;;;;24.44;35.88;101016.97;5077531;27;45374;-69
2022/06/28 10:00:13;;;;;;;;;1.00;1.00;;;;;24.55;35.25;101024.03;5077814;27;45279;-70
2022/06/28 10:02:41;;;;;;;;;0.00;0.00;;;;;24.45;35.31;101034.81;5077337;27;46730;-70
2022/06/28 10:05:08;;;;;;;;;3.00;2.00;;;;;24.46;35.70;101025.75;5077398;28;45223;-70
2022/06/28 10:07:34;;;;;;;;;2.25;2.25;;;;;24.55;34.55;101026.72;5093318;27;45192;-69
2022/06/28 10:10:01;;;;;;;;;1.75;1.75;;;;;24.56;35.10;101013.16;5075709;28;45600;-69
2022/06/28 10:15:21;;;;;;;;;2.50;2.00;;;;;24.75;34.85;101008.75;5076779;28;45330;-70
2022/06/28 10:17:53;;;;;;;;;1.00;1.00;;;;;24.82;34.09;101004.50;5076718;27;45376;-70
2022/06/28 10:20:23;;;;;;;;;8.50;5.75;;;;;24.83;34.81;101003.50;5077096;27;45578;-69
2022/06/28 10:22:49;;;;;;;;;8.75;8.75;;;;;24.90;34.89;101001.94;5076607;28;45463;-69
2022/06/28 10:25:18;;;;;;;;;9.75;7.00;;;;;24.96;34.45;100995.13;5076846;28;45422;-69
2022/06/28 10:27:46;;;;;;;;;8.00;6.00;;;;;25.00;34.05;100982.22;5076702;27;45467;-69
2022/06/28 10:30:14;;;;;;;;;5.00;3.00;;;;;25.07;34.06;100980.63;5076648;27;45281;-70
2022/06/28 10:32:45;;;;;;;;;4.75;4.75;;;;;25.15;33.90;100980.75;5076605;28;45905;-70
2022/06/28 10:35:30;;;;;;;;;3.25;2.75;;;;;25.31;34.11;100981.94;5076655;27;45255;-71
2022/06/28 10:38:08;;;;;;;;;5.00;5.00;;;;;25.40;34.25;100986.44;5076802;28;45381;-69
2022/06/28 10:40:45;;;;;;;;;1.75;1.75;;;;;25.45;33.74;100976.13;5076614;28;45507;-70
2022/06/28 10:43:11;;;;;;;;;3.00;1.50;;;;;25.47;33.51;100973.25;5076451;27;45183;-71
2022/06/28 10:46:05;;;;;;;;;2.25;2.25;;;;;25.46;33.66;100974.25;5075250;28;45848;-70
2022/06/28 10:48:51;;;;;;;;;1.00;1.00;;;;;25.32;32.77;100971.03;5075238;28;45285;-69
2022/06/28 10:51:18;;;;;;;;;4.75;3.00;;;;;25.30;33.09;100969.47;5076571;28;45318;-69
2022/06/28 10:54:01;;;;;;;;;4.00;4.00;;;;;25.26;33.02;100957.31;5076101;27;46841;-70
2022/06/28 10:56:47;;;;;;;;;3.00;3.00;;;;;25.23;32.56;100964.69;5075815;27;45267;-70
2022/06/28 10:59:15;;;;;;;;;2.00;2.00;;;;;25.36;32.72;100964.34;5076265;27;45660;-70
2022/06/28 11:01:40;;;;;;;;;4.25;2.50;;;;;25.59;32.41;100963.97;5076282;27;45366;-70
2022/06/28 11:04:23;;;;;;;;;2.00;2.00;;;;;25.80;32.23;100960.16;5076161;27;45435;-70
2022/06/28 11:06:56;;;;;;;;;2.00;2.00;;;;;26.00;31.95;100963.56;5076281;28;45232;-69
2022/06/28 11:09:44;;;;;;;;;5.50;3.00;;;;;26.16;31.71;100956.66;5074642;28;45268;-70
2022/06/28 11:12:16;;;;;;;;;3.00;3.00;;;;;26.21;31.09;100962.41;5076088;27;45541;-69
2022/06/28 11:14:53;;;;;;;;;1.25;1.25;;;;;26.23;31.52;100961.28;5075999;28;45211;-71
2022/06/28 11:17:22;;;;;;;;;1.75;1.75;;;;;26.26;31.29;100946.63;5074961;28;45428;-71
2022/06/28 11:19:51;;;;;;;;;3.50;3.50;;;;;26.19;31.53;100948.25;5091773;27;45280;-69
2022/06/28 11:22:20;;;;;;;;;2.00;2.00;;;;;26.23;31.25;100947.78;5075950;27;45247;-69
2022/06/28 11:24:47;;;;;;;;;1.75;1.75;;;;;26.27;31.19;100940.22;5075932;27;45405;-70
2022/06/28 11:27:21;;;;;;;;;1.75;1.50;;;;;26.28;30.77;100936.53;5076174;27;45397;-69
2022/06/28 11:29:49;;;;;;;;;2.50;2.00;;;;;26.35;30.61;100944.84;5075736;27;45336;-69
2022/06/28 11:32:16;;;;;;;;;1.50;1.50;;;;;26.43;30.82;100947.59;5074782;28;45660;-69
2022/06/28 11:34:42;;;;;;;;;2.00;2.00;;;;;26.46;30.72;100931.13;5075880;27;45431;-68